sensor_id;sensor_type;location;lat;lon;timestamp;temperature;humidity
3868;DHT22;1949;48.152;11.528;2023-02-26T00:00:07;9.50;42.10
3868;DHT22;1949;48.152;11.528;2023-02-26T00:02:43;9.50;42.10
3868;DHT22;1949;48.152;11.528;2023-02-26T00:05:15;9.50;42.00
3868;DHT22;1949;48.152;11.528;2023-02-26T00:07:41;9.50;42.20
3868;DHT22;1949;48.152;11.528;2023-02-26T00:10:11;9.40;42.10
3868;DHT22;1949;48.152;11.528;2023-02-26T00:12:38;9.50;42.00
3868;DHT22;1949;48.152;11.528;2023-02-26T00:15:04;9.40;41.90
3868;DHT22;1949;48.152;11.528;2023-02-26T00:20:45;9.40;41.90
3868;DHT22;1949;48.152;11.528;2023-02-26T00:23:12;9.40;42.10
3868;DHT22;1949;48.152;11.528;2023-02-26T00:25:39;9.40;42.10
3868;DHT22;1949;48.152;11.528;2023-02-26T00:28:06;9.40;42.20
3868;DHT22;1949;48.152;11.528;2023-02-26T00:30:32;9.40;42.20
3868;DHT22;1949;48.152;11.528;2023-02-26T00:32:58;9.40;42.20
3868;DHT22;1949;48.152;11.528;2023-02-26T00:35:24;9.40;41.90
3868;DHT22;1949;48.152;11.528;2023-02-26T00:38:05;9.40;41.90
3868;DHT22;1949;48.152;11.528;2023-02-26T00:40:42;9.30;41.90
3868;DHT22;1949;48.152;11.528;2023-02-26T00:43:21;9.30;42.00
3868;DHT22;1949;48.152;11.528;2023-02-26T00:46:15;9.30;41.90
3868;DHT22;1949;48.152;11.528;2023-02-26T00:54:17;9.20;42.10
3868;DHT22;1949;48.152;11.528;2023-02-26T00:56:45;9.20;42.00
3868;DHT22;1949;48.152;11.528;2023-02-26T00:59:15;9.20;42.00
3868;DHT22;1949;48.152;11.528;2023-02-26T01:01:44;9.30;42.10
3868;DHT22;1949;48.152;11.528;2023-02-26T01:04:11;9.20;42.00
3868;DHT22;1949;48.152;11.528;2023-02-26T01:06:52;9.20;42.00
3868;DHT22;1949;48.152;11.528;2023-02-26T01:09:32;9.20;41.90
3868;DHT22;1949;48.152;11.528;2023-02-26T01:12:08;9.20;41.90
3868;DHT22;1949;48.152;11.528;2023-02-26T01:14:35;9.20;41.80
3868;DHT22;1949;48.152;11.528;2023-02-26T01:17:18;9.20;41.90
3868;DHT22;1949;48.152;11.528;2023-02-26T01:19:53;9.20;42.00
3868;DHT22;1949;48.152;11.528;2023-02-26T01:25:34;9.20;41.90
3868;DHT22;1949;48.152;11.528;2023-02-26T01:28:01;9.20;41.90
3868;DHT22;1949;48.152;11.528;2023-02-26T01:30:27;9.20;41.90
3868;DHT22;1949;48.152;11.528;2023-02-26T01:41:09;9.10;41.70
3868;DHT22;1949;48.152;11.528;2023-02-26T01:49:20;9.00;41.70
3868;DHT22;1949;48.152;11.528;2023-02-26T01:51:58;9.00;41.80
3868;DHT22;1949;48.152;11.528;2023-02-26T01:54:32;9.00;41.80
3868;DHT22;1949;48.152;11.528;2023-02-26T01:57:14;9.00;41.80
3868;DHT22;1949;48.152;11.528;2023-02-26T01:59:45;9.00;41.80
3868;DHT22;1949;48.152;11.528;2023-02-26T02:02:15;9.10;41.80
3868;DHT22;1949;48.152;11.528;2023-02-26T02:04:41;9.00;41.70
3868;DHT22;1949;48.152;11.528;2023-02-26T02:07:08;9.00;41.70
3868;DHT22;1949;48.152;11.528;2023-02-26T02:09:35;9.00;41.80
3868;DHT22;1949;48.152;11.528;2023-02-26T02:18:05;9.00;41.70
3868;DHT22;1949;48.152;11.528;2023-02-26T02:23:46;8.90;41.50
3868;DHT22;1949;48.152;11.528;2023-02-26T02:31:59;8.90;41.70
3868;DHT22;1949;48.152;11.528;2023-02-26T02:34:48;8.90;41.60
3868;DHT22;1949;48.152;11.528;2023-02-26T02:37:38;8.90;41.50
3868;DHT22;1949;48.152;11.528;2023-02-26T02:40:19;8.90;41.50
3868;DHT22;1949;48.152;11.528;2023-02-26T02:42:56;8.90;41.50
3868;DHT22;1949;48.152;11.528;2023-02-26T02:48:08;8.90;41.60
3868;DHT22;1949;48.152;11.528;2023-02-26T02:50:42;8.90;41.60
3868;DHT22;1949;48.152;11.528;2023-02-26T02:53:22;9.10;41.60
3868;DHT22;1949;48.152;11.528;2023-02-26T02:58:46;8.90;41.50
3868;DHT22;1949;48.152;11.528;2023-02-26T03:01:18;8.90;41.40
3868;DHT22;1949;48.152;11.528;2023-02-26T03:04:01;8.80;41.40
3868;DHT22;1949;48.152;11.528;2023-02-26T03:06:30;8.80;41.40
3868;DHT22;1949;48.152;11.528;2023-02-26T03:08:57;8.80;41.40
3868;DHT22;1949;48.152;11.528;2023-02-26T03:11:24;8.80;41.40
3868;DHT22;1949;48.152;11.528;2023-02-26T03:13:51;8.80;41.20
3868;DHT22;1949;48.152;11.528;2023-02-26T03:19:52;8.80;41.30
3868;DHT22;1949;48.152;11.528;2023-02-26T03:22:50;8.70;41.20
3868;DHT22;1949;48.152;11.528;2023-02-26T03:25:28;8.70;41.20
3868;DHT22;1949;48.152;11.528;2023-02-26T03:30:41;8.60;41.20
3868;DHT22;1949;48.152;11.528;2023-02-26T03:36:04;8.60;41.00
3868;DHT22;1949;48.152;11.528;2023-02-26T03:41:22;8.60;41.20
3868;DHT22;1949;48.152;11.528;2023-02-26T03:44:08;8.60;41.10
3868;DHT22;1949;48.152;11.528;2023-02-26T03:46:42;8.50;40.90
3868;DHT22;1949;48.152;11.528;2023-02-26T03:49:31;8.50;41.10
3868;DHT22;1949;48.152;11.528;2023-02-26T03:52:07;8.50;41.10
3868;DHT22;1949;48.152;11.528;2023-02-26T03:54:57;8.50;41.00
3868;DHT22;1949;48.152;11.528;2023-02-26T03:57:24;8.50;41.10
3868;DHT22;1949;48.152;11.528;2023-02-26T03:59:52;8.50;41.10
3868;DHT22;1949;48.152;11.528;2023-02-26T04:02:36;8.50;41.00
3868;DHT22;1949;48.152;11.528;2023-02-26T04:05:17;8.50;41.10
3868;DHT22;1949;48.152;11.528;2023-02-26T04:07:47;8.50;41.00
3868;DHT22;1949;48.152;11.528;2023-02-26T04:10:20;8.40;40.90
3868;DHT22;1949;48.152;11.528;2023-02-26T04:12:49;8.40;40.90
3868;DHT22;1949;48.152;11.528;2023-02-26T04:15:15;8.40;41.00
3868;DHT22;1949;48.152;11.528;2023-02-26T04:17:51;8.40;41.00
3868;DHT22;1949;48.152;11.528;2023-02-26T04:20:17;8.50;41.00
3868;DHT22;1949;48.152;11.528;2023-02-26T04:22:43;8.40;40.80
3868;DHT22;1949;48.152;11.528;2023-02-26T04:25:20;8.40;40.90
3868;DHT22;1949;48.152;11.528;2023-02-26T04:27:56;8.40;40.90
3868;DHT22;1949;48.152;11.528;2023-02-26T04:30:22;8.40;40.90
3868;DHT22;1949;48.152;11.528;2023-02-26T04:32:54;8.40;40.80
3868;DHT22;1949;48.152;11.528;2023-02-26T04:35:20;8.40;40.70
3868;DHT22;1949;48.152;11.528;2023-02-26T04:37:46;8.40;40.70
3868;DHT22;1949;48.152;11.528;2023-02-26T04:40:23;8.40;40.70
3868;DHT22;1949;48.152;11.528;2023-02-26T04:42:49;8.40;40.70
3868;DHT22;1949;48.152;11.528;2023-02-26T04:45:21;8.40;40.70
3868;DHT22;1949;48.152;11.528;2023-02-26T04:47:48;8.40;40.70
3868;DHT22;1949;48.152;11.528;2023-02-26T04:50:16;8.30;40.50
3868;DHT22;1949;48.152;11.528;2023-02-26T04:52:42;8.30;41.30
3868;DHT22;1949;48.152;11.528;2023-02-26T04:55:13;8.30;40.70
3868;DHT22;1949;48.152;11.528;2023-02-26T04:57:41;8.30;40.60
3868;DHT22;1949;48.152;11.528;2023-02-26T05:00:07;8.30;40.70
3868;DHT22;1949;48.152;11.528;2023-02-26T05:02:34;8.30;40.70
3868;DHT22;1949;48.152;11.528;2023-02-26T05:05:02;8.30;40.50
3868;DHT22;1949;48.152;11.528;2023-02-26T05:07:28;8.30;40.60
3868;DHT22;1949;48.152;11.528;2023-02-26T05:09:55;8.30;40.50
3868;DHT22;1949;48.152;11.528;2023-02-26T05:12:22;8.30;40.50
3868;DHT22;1949;48.152;11.528;2023-02-26T05:14:50;8.20;40.50
3868;DHT22;1949;48.152;11.528;2023-02-26T05:17:18;8.30;40.70
3868;DHT22;1949;48.152;11.528;2023-02-26T05:19:47;8.40;40.50
3868;DHT22;1949;48.152;11.528;2023-02-26T05:22:13;8.20;40.30
3868;DHT22;1949;48.152;11.528;2023-02-26T05:24:41;8.20;40.30
3868;DHT22;1949;48.152;11.528;2023-02-26T05:27:08;8.10;40.20
3868;DHT22;1949;48.152;11.528;2023-02-26T05:29:56;8.00;40.20
3868;DHT22;1949;48.152;11.528;2023-02-26T05:32:29;8.00;40.40
3868;DHT22;1949;48.152;11.528;2023-02-26T05:34:55;8.00;40.30
3868;DHT22;1949;48.152;11.528;2023-02-26T05:37:21;7.90;40.30
3868;DHT22;1949;48.152;11.528;2023-02-26T05:39:47;7.90;40.40
3868;DHT22;1949;48.152;11.528;2023-02-26T05:42:12;7.90;40.30
3868;DHT22;1949;48.152;11.528;2023-02-26T05:44:50;7.90;40.20
3868;DHT22;1949;48.152;11.528;2023-02-26T05:47:19;8.00;40.40
3868;DHT22;1949;48.152;11.528;2023-02-26T05:49:49;7.80;40.50
3868;DHT22;1949;48.152;11.528;2023-02-26T05:52:15;7.90;40.60
3868;DHT22;1949;48.152;11.528;2023-02-26T05:54:45;7.80;40.40
3868;DHT22;1949;48.152;11.528;2023-02-26T05:57:19;7.80;40.40
3868;DHT22;1949;48.152;11.528;2023-02-26T06:03:07;7.80;40.80
3868;DHT22;1949;48.152;11.528;2023-02-26T06:05:32;7.80;40.80
3868;DHT22;1949;48.152;11.528;2023-02-26T06:08:00;7.80;40.30
3868;DHT22;1949;48.152;11.528;2023-02-26T06:10:26;7.80;40.40
3868;DHT22;1949;48.152;11.528;2023-02-26T06:13:03;7.80;40.40
3868;DHT22;1949;48.152;11.528;2023-02-26T06:15:42;7.80;40.30
3868;DHT22;1949;48.152;11.528;2023-02-26T06:18:07;7.80;40.20
3868;DHT22;1949;48.152;11.528;2023-02-26T06:20:36;7.80;40.20
3868;DHT22;1949;48.152;11.528;2023-02-26T06:23:02;7.80;40.20
3868;DHT22;1949;48.152;11.528;2023-02-26T06:25:32;7.70;40.00
3868;DHT22;1949;48.152;11.528;2023-02-26T06:28:03;7.70;40.10
3868;DHT22;1949;48.152;11.528;2023-02-26T06:30:31;7.70;40.10
3868;DHT22;1949;48.152;11.528;2023-02-26T06:33:00;7.70;40.10
3868;DHT22;1949;48.152;11.528;2023-02-26T06:35:28;7.70;40.20
3868;DHT22;1949;48.152;11.528;2023-02-26T06:37:55;7.70;40.20
3868;DHT22;1949;48.152;11.528;2023-02-26T06:40:22;7.70;40.70
3868;DHT22;1949;48.152;11.528;2023-02-26T06:42:55;7.70;40.10
3868;DHT22;1949;48.152;11.528;2023-02-26T06:45:21;7.80;40.30
3868;DHT22;1949;48.152;11.528;2023-02-26T06:51:13;7.80;40.20
3868;DHT22;1949;48.152;11.528;2023-02-26T06:53:43;7.80;40.10
3868;DHT22;1949;48.152;11.528;2023-02-26T06:56:15;7.80;40.00
3868;DHT22;1949;48.152;11.528;2023-02-26T06:58:41;7.80;39.90
3868;DHT22;1949;48.152;11.528;2023-02-26T07:01:07;7.80;39.70
3868;DHT22;1949;48.152;11.528;2023-02-26T07:03:36;7.70;39.80
3868;DHT22;1949;48.152;11.528;2023-02-26T07:09:14;7.80;40.10
3868;DHT22;1949;48.152;11.528;2023-02-26T07:11:41;7.80;40.00
3868;DHT22;1949;48.152;11.528;2023-02-26T07:14:20;7.80;40.00
3868;DHT22;1949;48.152;11.528;2023-02-26T07:16:46;7.80;39.80
3868;DHT22;1949;48.152;11.528;2023-02-26T07:19:18;7.80;39.90
3868;DHT22;1949;48.152;11.528;2023-02-26T07:21:56;7.90;40.00
3868;DHT22;1949;48.152;11.528;2023-02-26T07:24:22;7.90;39.90
3868;DHT22;1949;48.152;11.528;2023-02-26T07:26:48;7.90;39.80
3868;DHT22;1949;48.152;11.528;2023-02-26T07:29:16;7.90;39.90
3868;DHT22;1949;48.152;11.528;2023-02-26T07:35:04;7.90;40.00
3868;DHT22;1949;48.152;11.528;2023-02-26T07:37:33;8.00;40.10
3868;DHT22;1949;48.152;11.528;2023-02-26T07:40:03;8.00;40.00
3868;DHT22;1949;48.152;11.528;2023-02-26T07:42:29;8.10;40.10
3868;DHT22;1949;48.152;11.528;2023-02-26T07:44:58;8.10;40.00
3868;DHT22;1949;48.152;11.528;2023-02-26T07:47:34;8.20;39.80
3868;DHT22;1949;48.152;11.528;2023-02-26T07:50:36;8.20;39.90
3868;DHT22;1949;48.152;11.528;2023-02-26T07:56:24;8.20;39.90
3868;DHT22;1949;48.152;11.528;2023-02-26T08:02:12;8.20;39.60
3868;DHT22;1949;48.152;11.528;2023-02-26T08:08:00;8.10;39.60
3868;DHT22;1949;48.152;11.528;2023-02-26T08:17:10;8.10;39.80
3868;DHT22;1949;48.152;11.528;2023-02-26T08:19:59;8.00;39.50
3868;DHT22;1949;48.152;11.528;2023-02-26T08:42:36;8.00;40.00
3868;DHT22;1949;48.152;11.528;2023-02-26T08:48:24;8.10;40.00
3868;DHT22;1949;48.152;11.528;2023-02-26T08:54:12;8.20;40.00
3868;DHT22;1949;48.152;11.528;2023-02-26T08:59:59;8.30;39.90
3868;DHT22;1949;48.152;11.528;2023-02-26T09:09:09;8.30;39.80
3868;DHT22;1949;48.152;11.528;2023-02-26T09:14:57;8.30;39.80
3868;DHT22;1949;48.152;11.528;2023-02-26T09:20:46;8.40;39.90
3868;DHT22;1949;48.152;11.528;2023-02-26T09:23:13;8.40;39.80
3868;DHT22;1949;48.152;11.528;2023-02-26T09:25:44;8.40;40.00
3868;DHT22;1949;48.152;11.528;2023-02-26T09:31:03;8.40;39.80
3868;DHT22;1949;48.152;11.528;2023-02-26T09:33:59;8.50;40.00
3868;DHT22;1949;48.152;11.528;2023-02-26T09:36:30;8.50;40.00
3868;DHT22;1949;48.152;11.528;2023-02-26T09:47:47;8.50;39.80
3868;DHT22;1949;48.152;11.528;2023-02-26T09:53:20;8.50;39.80
3868;DHT22;1949;48.152;11.528;2023-02-26T09:55:49;8.50;39.80
3868;DHT22;1949;48.152;11.528;2023-02-26T09:58:26;8.50;39.80
3868;DHT22;1949;48.152;11.528;2023-02-26T10:15:05;8.60;39.80
3868;DHT22;1949;48.152;11.528;2023-02-26T10:20:28;8.60;39.80
3868;DHT22;1949;48.152;11.528;2023-02-26T10:23:06;8.60;39.80
3868;DHT22;1949;48.152;11.528;2023-02-26T10:25:40;8.60;39.80
3868;DHT22;1949;48.152;11.528;2023-02-26T10:30:50;8.70;40.00
3868;DHT22;1949;48.152;11.528;2023-02-26T10:39:43;8.80;39.80
3868;DHT22;1949;48.152;11.528;2023-02-26T10:42:26;8.80;39.80
3868;DHT22;1949;48.152;11.528;2023-02-26T10:48:16;8.80;39.80
3868;DHT22;1949;48.152;11.528;2023-02-26T10:50:50;8.90;39.90
3868;DHT22;1949;48.152;11.528;2023-02-26T10:53:17;8.90;39.80
3868;DHT22;1949;48.152;11.528;2023-02-26T10:56:15;9.00;39.90
3868;DHT22;1949;48.152;11.528;2023-02-26T10:58:43;8.90;39.80
3868;DHT22;1949;48.152;11.528;2023-02-26T11:01:17;8.90;39.80
3868;DHT22;1949;48.152;11.528;2023-02-26T11:03:46;8.80;40.30
3868;DHT22;1949;48.152;11.528;2023-02-26T11:06:22;8.80;39.60
3868;DHT22;1949;48.152;11.528;2023-02-26T11:08:55;8.80;39.80
3868;DHT22;1949;48.152;11.528;2023-02-26T11:14:16;8.80;39.80
3868;DHT22;1949;48.152;11.528;2023-02-26T11:17:05;8.80;39.80
3868;DHT22;1949;48.152;11.528;2023-02-26T11:19:40;8.80;39.80
3868;DHT22;1949;48.152;11.528;2023-02-26T11:22:12;8.80;40.00
3868;DHT22;1949;48.152;11.528;2023-02-26T11:24:42;8.80;39.90
3868;DHT22;1949;48.152;11.528;2023-02-26T11:27:20;8.80;39.80
3868;DHT22;1949;48.152;11.528;2023-02-26T11:29:57;8.90;39.80
3868;DHT22;1949;48.152;11.528;2023-02-26T11:32:33;8.90;39.80
3868;DHT22;1949;48.152;11.528;2023-02-26T11:35:02;8.90;39.60
3868;DHT22;1949;48.152;11.528;2023-02-26T11:37:48;8.90;39.80
3868;DHT22;1949;48.152;11.528;2023-02-26T11:40:46;8.90;40.00
3868;DHT22;1949;48.152;11.528;2023-02-26T11:43:20;9.00;40.00
3868;DHT22;1949;48.152;11.528;2023-02-26T11:45:51;9.00;39.90
3868;DHT22;1949;48.152;11.528;2023-02-26T11:48:36;9.10;39.80
3868;DHT22;1949;48.152;11.528;2023-02-26T11:51:05;9.00;39.80
3868;DHT22;1949;48.152;11.528;2023-02-26T11:53:47;9.00;39.70
3868;DHT22;1949;48.152;11.528;2023-02-26T11:56:40;9.00;39.70
3868;DHT22;1949;48.152;11.528;2023-02-26T11:59:22;9.00;39.70
3868;DHT22;1949;48.152;11.528;2023-02-26T12:01:51;8.90;39.70
3868;DHT22;1949;48.152;11.528;2023-02-26T12:04:20;8.80;39.80
3868;DHT22;1949;48.152;11.528;2023-02-26T12:06:49;8.90;40.00
3868;DHT22;1949;48.152;11.528;2023-02-26T12:09:17;8.90;40.10
3868;DHT22;1949;48.152;11.528;2023-02-26T12:12:11;8.90;40.00
3868;DHT22;1949;48.152;11.528;2023-02-26T12:17:52;9.00;40.30
3868;DHT22;1949;48.152;11.528;2023-02-26T12:28:37;9.60;40.60
3868;DHT22;1949;48.152;11.528;2023-02-26T12:31:28;9.80;40.70
3868;DHT22;1949;48.152;11.528;2023-02-26T12:34:23;10.10;39.60
3868;DHT22;1949;48.152;11.528;2023-02-26T12:42:56;10.70;39.00
3868;DHT22;1949;48.152;11.528;2023-02-26T12:46:12;10.80;38.50
3868;DHT22;1949;48.152;11.528;2023-02-26T12:53:58;11.20;38.80
3868;DHT22;1949;48.152;11.528;2023-02-26T12:56:43;11.20;38.40
3868;DHT22;1949;48.152;11.528;2023-02-26T13:18:45;10.70;37.30
3868;DHT22;1949;48.152;11.528;2023-02-26T13:21:19;10.50;37.50
3868;DHT22;1949;48.152;11.528;2023-02-26T13:23:52;10.30;37.60
3868;DHT22;1949;48.152;11.528;2023-02-26T13:26:21;10.20;37.80
3868;DHT22;1949;48.152;11.528;2023-02-26T13:29:04;10.10;38.00
3868;DHT22;1949;48.152;11.528;2023-02-26T13:31:58;10.00;38.20
3868;DHT22;1949;48.152;11.528;2023-02-26T13:34:41;10.00;38.40
3868;DHT22;1949;48.152;11.528;2023-02-26T13:37:25;10.00;38.70
3868;DHT22;1949;48.152;11.528;2023-02-26T13:49:52;10.70;38.50
3868;DHT22;1949;48.152;11.528;2023-02-26T13:52:28;10.60;38.10
3868;DHT22;1949;48.152;11.528;2023-02-26T13:55:43;10.40;38.10
3868;DHT22;1949;48.152;11.528;2023-02-26T14:04:57;10.20;38.60
3868;DHT22;1949;48.152;11.528;2023-02-26T14:10:55;10.20;38.50
3868;DHT22;1949;48.152;11.528;2023-02-26T14:16:48;10.10;38.20
3868;DHT22;1949;48.152;11.528;2023-02-26T14:26:18;10.20;39.00
3868;DHT22;1949;48.152;11.528;2023-02-26T14:34:42;10.60;38.10
3868;DHT22;1949;48.152;11.528;2023-02-26T14:37:19;10.60;38.00
3868;DHT22;1949;48.152;11.528;2023-02-26T14:39:54;10.60;38.00
3868;DHT22;1949;48.152;11.528;2023-02-26T14:45:37;10.90;38.40
3868;DHT22;1949;48.152;11.528;2023-02-26T14:48:06;11.00;37.60
3868;DHT22;1949;48.152;11.528;2023-02-26T15:00:03;10.40;37.20
3868;DHT22;1949;48.152;11.528;2023-02-26T15:05:59;10.20;37.50
3868;DHT22;1949;48.152;11.528;2023-02-26T15:15:47;10.20;37.80
3868;DHT22;1949;48.152;11.528;2023-02-26T15:21:51;10.40;38.20
3868;DHT22;1949;48.152;11.528;2023-02-26T15:27:44;10.60;37.60
3868;DHT22;1949;48.152;11.528;2023-02-26T15:30:14;10.50;37.50
3868;DHT22;1949;48.152;11.528;2023-02-26T15:36:15;10.40;37.80
3868;DHT22;1949;48.152;11.528;2023-02-26T15:38:55;10.40;37.80
3868;DHT22;1949;48.152;11.528;2023-02-26T15:41:23;10.40;37.60
3868;DHT22;1949;48.152;11.528;2023-02-26T15:44:18;10.30;37.50
3868;DHT22;1949;48.152;11.528;2023-02-26T15:46:47;10.20;37.70
3868;DHT22;1949;48.152;11.528;2023-02-26T15:49:37;10.20;37.80
3868;DHT22;1949;48.152;11.528;2023-02-26T15:52:18;10.20;37.90
3868;DHT22;1949;48.152;11.528;2023-02-26T15:55:02;10.20;37.80
3868;DHT22;1949;48.152;11.528;2023-02-26T15:57:30;10.20;37.70
3868;DHT22;1949;48.152;11.528;2023-02-26T16:00:09;10.10;37.70
3868;DHT22;1949;48.152;11.528;2023-02-26T16:02:41;10.10;37.70
3868;DHT22;1949;48.152;11.528;2023-02-26T16:05:13;10.00;37.70
3868;DHT22;1949;48.152;11.528;2023-02-26T16:07:45;10.00;37.60
3868;DHT22;1949;48.152;11.528;2023-02-26T16:16:54;9.90;38.50
3868;DHT22;1949;48.152;11.528;2023-02-26T16:19:43;9.90;38.80
3868;DHT22;1949;48.152;11.528;2023-02-26T16:28:59;9.90;38.60
3868;DHT22;1949;48.152;11.528;2023-02-26T16:31:26;9.90;38.60
3868;DHT22;1949;48.152;11.528;2023-02-26T16:34:27;9.90;38.40
3868;DHT22;1949;48.152;11.528;2023-02-26T16:37:32;9.80;38.40
3868;DHT22;1949;48.152;11.528;2023-02-26T16:40:29;9.70;38.20
3868;DHT22;1949;48.152;11.528;2023-02-26T16:45:52;9.50;38.40
3868;DHT22;1949;48.152;11.528;2023-02-26T16:48:23;9.40;38.40
3868;DHT22;1949;48.152;11.528;2023-02-26T16:53:32;9.40;38.60
3868;DHT22;1949;48.152;11.528;2023-02-26T16:55:59;9.40;38.60
3868;DHT22;1949;48.152;11.528;2023-02-26T16:58:26;9.40;38.60
3868;DHT22;1949;48.152;11.528;2023-02-26T17:01:07;9.50;38.70
3868;DHT22;1949;48.152;11.528;2023-02-26T17:03:35;9.50;38.70
3868;DHT22;1949;48.152;11.528;2023-02-26T17:06:10;9.50;38.70
3868;DHT22;1949;48.152;11.528;2023-02-26T17:08:50;9.50;38.80
3868;DHT22;1949;48.152;11.528;2023-02-26T17:11:29;9.50;38.80
3868;DHT22;1949;48.152;11.528;2023-02-26T17:14:20;9.60;38.80
3868;DHT22;1949;48.152;11.528;2023-02-26T17:16:52;9.50;38.70
3868;DHT22;1949;48.152;11.528;2023-02-26T17:19:18;9.50;38.70
3868;DHT22;1949;48.152;11.528;2023-02-26T17:21:46;9.50;38.70
3868;DHT22;1949;48.152;11.528;2023-02-26T17:26:56;9.60;38.80
3868;DHT22;1949;48.152;11.528;2023-02-26T17:29:52;9.60;38.60
3868;DHT22;1949;48.152;11.528;2023-02-26T17:32:22;9.50;38.50
3868;DHT22;1949;48.152;11.528;2023-02-26T17:34:49;9.50;38.40
3868;DHT22;1949;48.152;11.528;2023-02-26T17:37:17;9.40;38.40
3868;DHT22;1949;48.152;11.528;2023-02-26T17:39:47;9.50;38.60
3868;DHT22;1949;48.152;11.528;2023-02-26T17:42:20;9.40;38.60
3868;DHT22;1949;48.152;11.528;2023-02-26T17:44:48;9.40;38.40
3868;DHT22;1949;48.152;11.528;2023-02-26T17:47:16;9.30;38.30
3868;DHT22;1949;48.152;11.528;2023-02-26T17:49:43;9.20;38.30
3868;DHT22;1949;48.152;11.528;2023-02-26T17:52:15;9.10;38.60
3868;DHT22;1949;48.152;11.528;2023-02-26T17:54:45;9.00;38.80
3868;DHT22;1949;48.152;11.528;2023-02-26T17:57:19;9.00;38.90
3868;DHT22;1949;48.152;11.528;2023-02-26T17:59:49;8.90;39.00
3868;DHT22;1949;48.152;11.528;2023-02-26T18:02:21;8.90;39.10
3868;DHT22;1949;48.152;11.528;2023-02-26T18:04:48;8.90;39.00
3868;DHT22;1949;48.152;11.528;2023-02-26T18:07:17;8.90;39.00
3868;DHT22;1949;48.152;11.528;2023-02-26T18:09:44;8.90;39.20
3868;DHT22;1949;48.152;11.528;2023-02-26T18:12:19;8.90;39.20
3868;DHT22;1949;48.152;11.528;2023-02-26T18:14:46;8.90;39.30
3868;DHT22;1949;48.152;11.528;2023-02-26T18:17:14;9.00;39.20
3868;DHT22;1949;48.152;11.528;2023-02-26T18:19:41;9.00;39.20
3868;DHT22;1949;48.152;11.528;2023-02-26T18:22:16;9.00;39.00
3868;DHT22;1949;48.152;11.528;2023-02-26T18:24:43;9.00;39.10
3868;DHT22;1949;48.152;11.528;2023-02-26T18:27:17;9.00;39.10
3868;DHT22;1949;48.152;11.528;2023-02-26T18:29:44;9.00;39.00
3868;DHT22;1949;48.152;11.528;2023-02-26T18:32:18;9.00;39.00
3868;DHT22;1949;48.152;11.528;2023-02-26T18:34:44;9.00;39.00
3868;DHT22;1949;48.152;11.528;2023-02-26T18:37:15;9.00;39.00
3868;DHT22;1949;48.152;11.528;2023-02-26T18:39:42;8.90;39.00
3868;DHT22;1949;48.152;11.528;2023-02-26T18:42:22;8.90;38.90
3868;DHT22;1949;48.152;11.528;2023-02-26T18:44:48;8.90;39.00
3868;DHT22;1949;48.152;11.528;2023-02-26T18:47:15;8.90;39.00
3868;DHT22;1949;48.152;11.528;2023-02-26T18:49:41;8.90;38.90
3868;DHT22;1949;48.152;11.528;2023-02-26T18:52:07;9.00;38.90
3868;DHT22;1949;48.152;11.528;2023-02-26T18:54:33;9.00;38.90
3868;DHT22;1949;48.152;11.528;2023-02-26T18:57:00;8.80;38.80
3868;DHT22;1949;48.152;11.528;2023-02-26T18:59:27;8.80;38.90
3868;DHT22;1949;48.152;11.528;2023-02-26T19:01:52;8.80;38.90
3868;DHT22;1949;48.152;11.528;2023-02-26T19:04:18;8.90;39.00
3868;DHT22;1949;48.152;11.528;2023-02-26T19:06:45;8.70;38.90
3868;DHT22;1949;48.152;11.528;2023-02-26T19:09:11;8.70;39.00
3868;DHT22;1949;48.152;11.528;2023-02-26T19:11:36;8.70;39.10
3868;DHT22;1949;48.152;11.528;2023-02-26T19:14:03;8.80;39.20
3868;DHT22;1949;48.152;11.528;2023-02-26T19:16:34;8.80;39.20
3868;DHT22;1949;48.152;11.528;2023-02-26T19:19:05;8.70;39.00
3868;DHT22;1949;48.152;11.528;2023-02-26T19:21:32;8.70;39.00
3868;DHT22;1949;48.152;11.528;2023-02-26T19:23:59;8.90;39.20
3868;DHT22;1949;48.152;11.528;2023-02-26T19:26:27;8.80;39.20
3868;DHT22;1949;48.152;11.528;2023-02-26T19:28:58;8.70;39.10
3868;DHT22;1949;48.152;11.528;2023-02-26T19:31:30;8.80;39.20
3868;DHT22;1949;48.152;11.528;2023-02-26T19:33:56;8.80;39.20
3868;DHT22;1949;48.152;11.528;2023-02-26T19:36:21;8.80;39.20
3868;DHT22;1949;48.152;11.528;2023-02-26T19:38:49;8.90;39.20
3868;DHT22;1949;48.152;11.528;2023-02-26T19:41:16;8.80;39.20
3868;DHT22;1949;48.152;11.528;2023-02-26T19:43:47;8.70;39.00
3868;DHT22;1949;48.152;11.528;2023-02-26T19:46:16;8.80;39.00
3868;DHT22;1949;48.152;11.528;2023-02-26T19:48:43;8.60;38.90
3868;DHT22;1949;48.152;11.528;2023-02-26T19:51:09;8.60;39.10
3868;DHT22;1949;48.152;11.528;2023-02-26T19:53:36;8.70;39.30
3868;DHT22;1949;48.152;11.528;2023-02-26T19:56:03;8.60;39.30
3868;DHT22;1949;48.152;11.528;2023-02-26T19:58:32;8.60;39.30
3868;DHT22;1949;48.152;11.528;2023-02-26T20:01:04;8.60;39.20
3868;DHT22;1949;48.152;11.528;2023-02-26T20:03:30;8.50;39.20
3868;DHT22;1949;48.152;11.528;2023-02-26T20:05:56;8.50;39.20
3868;DHT22;1949;48.152;11.528;2023-02-26T20:08:25;8.50;39.20
3868;DHT22;1949;48.152;11.528;2023-02-26T20:10:57;8.50;39.20
3868;DHT22;1949;48.152;11.528;2023-02-26T20:13:26;8.40;39.20
3868;DHT22;1949;48.152;11.528;2023-02-26T20:15:56;8.40;39.20
3868;DHT22;1949;48.152;11.528;2023-02-26T20:18:28;8.40;39.10
3868;DHT22;1949;48.152;11.528;2023-02-26T20:20:56;8.40;39.30
3868;DHT22;1949;48.152;11.528;2023-02-26T20:23:24;8.50;39.30
3868;DHT22;1949;48.152;11.528;2023-02-26T20:26:00;8.40;39.20
3868;DHT22;1949;48.152;11.528;2023-02-26T20:28:27;8.40;39.40
3868;DHT22;1949;48.152;11.528;2023-02-26T20:30:56;8.30;39.20
3868;DHT22;1949;48.152;11.528;2023-02-26T20:33:24;8.40;39.40
3868;DHT22;1949;48.152;11.528;2023-02-26T20:35:53;8.30;39.20
3868;DHT22;1949;48.152;11.528;2023-02-26T20:38:21;8.30;39.20
3868;DHT22;1949;48.152;11.528;2023-02-26T20:40:52;8.30;39.20
3868;DHT22;1949;48.152;11.528;2023-02-26T20:43:18;8.30;39.40
3868;DHT22;1949;48.152;11.528;2023-02-26T20:45:48;8.30;39.30
3868;DHT22;1949;48.152;11.528;2023-02-26T20:48:15;8.30;39.40
3868;DHT22;1949;48.152;11.528;2023-02-26T20:50:44;8.40;39.50
3868;DHT22;1949;48.152;11.528;2023-02-26T20:53:09;8.30;39.40
3868;DHT22;1949;48.152;11.528;2023-02-26T20:55:36;8.40;39.40
3868;DHT22;1949;48.152;11.528;2023-02-26T20:58:04;8.20;39.40
3868;DHT22;1949;48.152;11.528;2023-02-26T21:00:30;8.30;39.50
3868;DHT22;1949;48.152;11.528;2023-02-26T21:02:57;8.30;39.50
3868;DHT22;1949;48.152;11.528;2023-02-26T21:05:25;8.40;39.60
3868;DHT22;1949;48.152;11.528;2023-02-26T21:07:51;8.50;39.70
3868;DHT22;1949;48.152;11.528;2023-02-26T21:10:18;8.30;39.40
3868;DHT22;1949;48.152;11.528;2023-02-26T21:12:50;8.30;39.40
3868;DHT22;1949;48.152;11.528;2023-02-26T21:15:18;8.30;39.40
3868;DHT22;1949;48.152;11.528;2023-02-26T21:17:45;8.30;39.40
3868;DHT22;1949;48.152;11.528;2023-02-26T21:20:13;8.30;39.40
3868;DHT22;1949;48.152;11.528;2023-02-26T21:22:44;8.30;39.30
3868;DHT22;1949;48.152;11.528;2023-02-26T21:25:10;8.30;39.20
3868;DHT22;1949;48.152;11.528;2023-02-26T21:27:37;8.20;39.30
3868;DHT22;1949;48.152;11.528;2023-02-26T21:30:05;8.20;39.30
3868;DHT22;1949;48.152;11.528;2023-02-26T21:32:39;8.20;39.30
3868;DHT22;1949;48.152;11.528;2023-02-26T21:35:08;8.20;39.30
3868;DHT22;1949;48.152;11.528;2023-02-26T21:37:35;8.10;39.40
3868;DHT22;1949;48.152;11.528;2023-02-26T21:40:03;8.10;39.40
3868;DHT22;1949;48.152;11.528;2023-02-26T21:42:37;8.20;39.50